Time;durP1;ratioP1;P1;durP2;ratioP2;P2;SDS_P1;SDS_P2;PMS_P1;PMS_P2;Temp;Humidity;BMP_temperature;BMP_pressure;BME280_temperature;BME280_humidity;BME280_pressure;Samples;Min_cycle;Max_cycle;Signal;HPM_P1;HPM_P2
2023/04/01 00:01:09;;;;;;;7.00;4.10;;;9.70;99.90;;;;;;5084972;28;20045;-81
2023/04/01 00:03:36;;;;;;;6.95;4.32;;;9.70;99.90;;;;;;5109160;28;20032;-81
2023/04/01 00:06:03;;;;;;;6.50;4.68;;;9.70;99.90;;;;;;5112275;28;20412;-81
2023/04/01 00:08:30;;;;;;;6.93;4.45;;;9.70;99.90;;;;;;5095341;28;20048;-81
2023/04/01 00:10:57;;;;;;;8.05;4.90;;;9.70;99.90;;;;;;5111854;28;20141;-82
2023/04/01 00:13:26;;;;;;;8.00;4.72;;;9.70;99.90;;;;;;5095486;28;20617;-81
2023/04/01 00:15:54;;;;;;;8.68;4.85;;;9.70;99.90;;;;;;5111614;28;20059;-81
2023/04/01 00:18:21;;;;;;;6.80;4.63;;;9.70;99.90;;;;;;5112050;28;20480;-82
2023/04/01 00:20:50;;;;;;;7.25;4.30;;;9.80;99.90;;;;;;5111675;28;20044;-81
2023/04/01 00:23:18;;;;;;;9.00;5.07;;;9.70;99.90;;;;;;5125402;28;20561;-81
2023/04/01 00:25:47;;;;;;;8.02;4.50;;;9.70;99.90;;;;;;5131922;28;20071;-81
2023/04/01 00:28:18;;;;;;;7.28;4.97;;;9.70;99.90;;;;;;5115968;28;20040;-81
2023/04/01 00:30:46;;;;;;;9.10;5.20;;;9.70;99.90;;;;;;5115411;28;20075;-81
2023/04/01 00:33:13;;;;;;;8.77;4.72;;;9.70;99.90;;;;;;5114901;28;20044;-81
2023/04/01 00:35:40;;;;;;;8.15;5.28;;;9.70;99.90;;;;;;5098347;28;20555;-82
2023/04/01 00:38:07;;;;;;;8.65;5.03;;;9.70;99.90;;;;;;5098994;28;20088;-81
2023/04/01 00:40:37;;;;;;;7.07;4.80;;;9.70;99.90;;;;;;5132424;28;20050;-81
2023/04/01 00:43:14;;;;;;;8.75;4.93;;;9.70;99.90;;;;;;5131554;28;20031;-81
2023/04/01 00:45:42;;;;;;;6.90;4.70;;;9.70;99.90;;;;;;5132095;28;20479;-83
2023/04/01 00:48:14;;;;;;;8.55;5.28;;;9.70;99.90;;;;;;5115212;28;20036;-81
2023/04/01 00:50:45;;;;;;;8.25;5.25;;;9.70;99.90;;;;;;5149186;28;20047;-83
2023/04/01 00:53:13;;;;;;;9.48;5.35;;;9.70;99.90;;;;;;5131941;28;20039;-81
2023/04/01 00:55:45;;;;;;;9.95;5.40;;;9.40;99.90;;;;;;5131341;28;20040;-81
2023/04/01 00:58:16;;;;;;;9.75;5.35;;;9.60;99.90;;;;;;5131537;28;20492;-81
2023/04/01 01:00:46;;;;;;;10.40;5.88;;;9.60;99.90;;;;;;5148517;28;20495;-81
2023/04/01 01:03:12;;;;;;;11.52;5.93;;;9.60;99.90;;;;;;5115091;28;20042;-81
2023/04/01 01:06:21;;;;;;;11.70;5.97;;;9.60;99.90;;;;;;5096973;28;20039;-81
2023/04/01 01:09:07;;;;;;;8.88;5.47;;;9.60;99.90;;;;;;5101065;28;20059;-81
2023/04/01 01:11:41;;;;;;;8.38;5.43;;;9.60;99.90;;;;;;5128226;28;20044;-81
2023/04/01 01:14:33;;;;;;;9.45;5.63;;;9.60;99.90;;;;;;5110765;28;20116;-81
2023/04/01 01:17:34;;;;;;;10.07;6.03;;;9.60;99.90;;;;;;5109889;28;20051;-81
2023/04/01 01:20:39;;;;;;;9.77;5.72;;;9.60;99.90;;;;;;5111010;28;20036;-81
2023/04/01 01:23:24;;;;;;;10.82;7.35;;;9.60;99.90;;;;;;5110694;28;20036;-81
2023/04/01 01:26:20;;;;;;;10.57;5.78;;;9.60;99.90;;;;;;5110756;28;20043;-81
2023/04/01 01:29:09;;;;;;;10.05;5.97;;;9.60;99.90;;;;;;5127656;28;20048;-81
2023/04/01 01:31:50;;;;;;;12.68;6.00;;;9.60;99.90;;;;;;5110497;28;20054;-82
2023/04/01 01:34:24;;;;;;;10.93;5.88;;;9.60;99.90;;;;;;5127411;28;20061;-81
2023/04/01 01:36:57;;;;;;;9.75;6.03;;;9.50;99.90;;;;;;5127202;28;20044;-81
2023/04/01 01:39:30;;;;;;;11.57;6.05;;;9.50;99.90;;;;;;5110370;28;20037;-81
2023/04/01 01:42:00;;;;;;;10.43;6.40;;;9.50;99.90;;;;;;5110371;28;20047;-81
2023/04/01 01:44:29;;;;;;;10.00;5.47;;;9.50;99.90;;;;;;5110372;28;20169;-82
2023/04/01 01:46:57;;;;;;;9.70;6.32;;;9.50;99.90;;;;;;5109802;28;20070;-82
2023/04/01 01:49:25;;;;;;;10.30;5.95;;;9.50;99.90;;;;;;5093485;28;20040;-82
2023/04/01 01:51:52;;;;;;;9.48;5.57;;;9.40;99.90;;;;;;5109851;28;20457;-84
2023/04/01 01:54:19;;;;;;;9.82;6.22;;;9.50;99.90;;;;;;5093649;28;20039;-82
2023/04/01 01:56:50;;;;;;;10.13;6.82;;;9.40;99.90;;;;;;5093641;28;20040;-81
2023/04/01 01:59:20;;;;;;;9.52;6.22;;;9.40;99.90;;;;;;5110076;28;20040;-82
2023/04/01 02:01:53;;;;;;;11.00;6.07;;;9.40;99.90;;;;;;5110261;28;20042;-82
2023/04/01 02:04:22;;;;;;;10.43;6.43;;;9.50;99.90;;;;;;5109808;28;20040;-82
2023/04/01 02:07:18;;;;;;;11.65;6.43;;;9.40;99.90;;;;;;5128262;28;20140;-82
2023/04/01 02:09:45;;;;;;;13.02;6.00;;;9.40;99.90;;;;;;5128920;28;20090;-82
2023/04/01 02:12:16;;;;;;;11.55;6.47;;;9.50;99.90;;;;;;5130013;28;20078;-82
2023/04/01 02:14:55;;;;;;;10.25;6.22;;;9.50;99.90;;;;;;5146708;28;20087;-82
2023/04/01 02:17:26;;;;;;;10.32;6.43;;;9.50;99.90;;;;;;5144953;28;20479;-82
2023/04/01 02:19:57;;;;;;;13.63;6.68;;;9.50;99.90;;;;;;5110092;28;20177;-82
2023/04/01 02:22:28;;;;;;;12.05;6.38;;;9.40;99.90;;;;;;5126471;28;20043;-82
2023/04/01 02:24:59;;;;;;;13.60;6.57;;;9.40;99.90;;;;;;5109375;28;20496;-82
2023/04/01 02:27:26;;;;;;;10.90;6.82;;;9.50;99.90;;;;;;5113826;28;20035;-82
2023/04/01 02:29:53;;;;;;;12.52;6.80;;;9.50;99.90;;;;;;5112530;28;20395;-82
2023/04/01 02:32:20;;;;;;;11.23;6.55;;;9.40;99.90;;;;;;5113387;28;20070;-82
2023/04/01 02:34:48;;;;;;;11.13;6.63;;;9.50;99.90;;;;;;5129875;28;20451;-82
2023/04/01 02:37:15;;;;;;;11.38;7.60;;;9.50;99.90;;;;;;5112524;28;20039;-82
2023/04/01 02:39:42;;;;;;;11.82;7.13;;;9.50;99.90;;;;;;5112855;28;20035;-82
2023/04/01 02:42:09;;;;;;;11.15;7.35;;;9.50;99.90;;;;;;5129807;28;20031;-82
2023/04/01 02:44:36;;;;;;;10.95;7.15;;;9.50;99.90;;;;;;5096802;28;20047;-82
2023/04/01 02:47:03;;;;;;;10.48;7.18;;;9.50;99.90;;;;;;5130070;28;20042;-82
2023/04/01 02:49:30;;;;;;;13.77;7.70;;;9.50;99.90;;;;;;5113077;28;20039;-82
2023/04/01 02:51:56;;;;;;;12.52;7.45;;;9.50;99.90;;;;;;5096341;28;20039;-82
2023/04/01 02:54:23;;;;;;;15.40;7.43;;;9.50;99.90;;;;;;5112735;28;20123;-82
2023/04/01 02:56:50;;;;;;;13.30;7.80;;;9.50;99.90;;;;;;5096153;28;20096;-82
2023/04/01 02:59:17;;;;;;;14.70;7.78;;;9.50;99.90;;;;;;5095911;28;20126;-82
2023/04/01 03:01:44;;;;;;;13.05;7.82;;;9.50;99.90;;;;;;5146488;28;20047;-82
2023/04/01 03:04:10;;;;;;;13.80;7.53;;;9.50;99.90;;;;;;5112522;28;20093;-82
2023/04/01 03:06:37;;;;;;;12.52;8.60;;;9.50;99.90;;;;;;5096799;28;20494;-82
2023/04/01 03:09:04;;;;;;;12.57;8.02;;;9.50;99.90;;;;;;5096023;28;20048;-83
2023/04/01 03:11:31;;;;;;;12.95;8.13;;;9.50;99.90;;;;;;5082222;28;20070;-82
2023/04/01 03:13:57;;;;;;;13.18;7.93;;;9.50;99.90;;;;;;5076044;28;20078;-82
2023/04/01 03:16:24;;;;;;;12.07;8.02;;;9.50;99.90;;;;;;5075656;28;20148;-82
2023/04/01 03:18:52;;;;;;;13.88;7.65;;;9.50;99.90;;;;;;5075818;28;20050;-82
2023/04/01 03:21:21;;;;;;;13.38;8.48;;;9.50;99.90;;;;;;5075833;28;20101;-82
2023/04/01 03:23:48;;;;;;;14.13;8.52;;;9.50;99.90;;;;;;5108872;28;20051;-82
2023/04/01 03:26:15;;;;;;;12.48;8.02;;;9.50;99.90;;;;;;5108619;28;20036;-82
2023/04/01 03:28:42;;;;;;;12.23;8.02;;;9.50;99.90;;;;;;5092455;28;20389;-82
2023/04/01 03:31:09;;;;;;;15.13;8.82;;;9.50;99.90;;;;;;5092161;28;20411;-82
2023/04/01 03:33:36;;;;;;;14.65;8.50;;;9.50;99.90;;;;;;5116411;28;20512;-82
2023/04/01 03:36:06;;;;;;;11.40;7.88;;;9.50;99.90;;;;;;5103204;28;20877;-82
2023/04/01 03:38:34;;;;;;;13.95;8.88;;;9.50;99.90;;;;;;5108671;28;20484;-82
2023/04/01 03:41:01;;;;;;;11.25;7.97;;;9.50;99.90;;;;;;5111536;28;20499;-82
2023/04/01 03:43:28;;;;;;;12.65;7.90;;;9.50;99.90;;;;;;5117333;28;20403;-82
2023/04/01 03:45:57;;;;;;;11.75;7.68;;;9.50;99.90;;;;;;5116226;28;20032;-82
2023/04/01 03:48:25;;;;;;;14.75;8.85;;;9.50;99.90;;;;;;5099660;28;20040;-82
2023/04/01 03:50:52;;;;;;;15.40;8.02;;;9.20;99.90;;;;;;5133032;28;20047;-82
2023/04/01 03:53:18;;;;;;;12.75;7.97;;;9.40;99.90;;;;;;5131494;28;20039;-82
2023/04/01 03:55:46;;;;;;;15.10;8.68;;;9.50;99.90;;;;;;5115331;28;20096;-82
2023/04/01 03:58:13;;;;;;;13.23;8.77;;;9.50;99.90;;;;;;5133175;28;20046;-82
2023/04/01 04:00:40;;;;;;;12.93;8.27;;;9.50;99.90;;;;;;5133006;28;20123;-82
2023/04/01 04:03:07;;;;;;;12.00;7.80;;;9.50;99.90;;;;;;5099442;28;20143;-82
2023/04/01 04:05:34;;;;;;;12.13;7.57;;;9.50;99.90;;;;;;5117080;28;20492;-82
2023/04/01 04:08:01;;;;;;;12.45;8.05;;;9.50;99.90;;;;;;5095790;28;20040;-82
2023/04/01 04:10:29;;;;;;;10.73;7.63;;;9.50;99.90;;;;;;5095638;28;20040;-82
2023/04/01 04:12:56;;;;;;;13.27;7.78;;;9.50;99.90;;;;;;5095653;28;20036;-82
2023/04/01 04:15:23;;;;;;;11.52;7.53;;;9.50;99.90;;;;;;5139461;28;20188;-83
2023/04/01 04:17:50;;;;;;;12.75;7.90;;;9.40;99.90;;;;;;5115572;28;20080;-83
2023/04/01 04:20:16;;;;;;;12.07;7.43;;;9.50;99.90;;;;;;5132290;28;20040;-82
2023/04/01 04:22:43;;;;;;;15.30;7.97;;;9.40;99.90;;;;;;5115266;28;20185;-82
2023/04/01 04:25:10;;;;;;;12.52;7.30;;;9.50;99.90;;;;;;5095278;28;20508;-82
2023/04/01 04:27:37;;;;;;;12.43;8.13;;;9.50;99.90;;;;;;5094910;28;20040;-82
2023/04/01 04:30:05;;;;;;;13.45;8.52;;;9.40;99.90;;;;;;5107300;28;20508;-82
2023/04/01 04:32:32;;;;;;;12.90;7.95;;;9.50;99.90;;;;;;5131611;28;20044;-83
2023/04/01 04:34:59;;;;;;;13.48;8.23;;;9.40;99.90;;;;;;5115500;28;20140;-82
2023/04/01 04:37:26;;;;;;;14.35;8.35;;;9.40;99.90;;;;;;5098211;28;20075;-82
2023/04/01 04:39:52;;;;;;;12.43;7.70;;;9.20;99.90;;;;;;5132099;28;20126;-82
2023/04/01 04:42:19;;;;;;;14.18;8.70;;;9.40;99.90;;;;;;5098325;28;20032;-82
2023/04/01 04:44:46;;;;;;;11.32;7.82;;;9.50;99.90;;;;;;5131996;28;20409;-82
2023/04/01 04:47:12;;;;;;;11.80;7.95;;;9.50;99.90;;;;;;5098256;28;20040;-82
2023/04/01 04:49:39;;;;;;;13.35;8.25;;;9.40;99.90;;;;;;5098609;28;20086;-82
2023/04/01 04:52:06;;;;;;;14.00;8.63;;;9.40;99.90;;;;;;5114122;28;20082;-82
2023/04/01 04:54:33;;;;;;;14.68;8.32;;;9.40;99.90;;;;;;5097923;28;20134;-82
2023/04/01 04:57:00;;;;;;;13.63;8.00;;;9.40;99.90;;;;;;5094561;28;20043;-82
2023/04/01 04:59:26;;;;;;;15.40;9.32;;;9.40;99.90;;;;;;5110982;28;20071;-82
2023/04/01 05:01:53;;;;;;;15.63;9.60;;;9.40;99.90;;;;;;5111422;28;20036;-83
2023/04/01 05:04:20;;;;;;;14.70;8.90;;;9.40;99.90;;;;;;5111302;28;20032;-84
2023/04/01 05:06:46;;;;;;;13.18;8.77;;;9.40;99.90;;;;;;5111228;28;20039;-83
2023/04/01 05:09:13;;;;;;;13.02;8.98;;;9.40;99.90;;;;;;5110921;28;20118;-83
2023/04/01 05:11:40;;;;;;;11.63;7.80;;;9.40;99.90;;;;;;5110783;28;20093;-83
2023/04/01 05:14:11;;;;;;;15.00;9.02;;;9.40;99.90;;;;;;5110760;28;20052;-83
2023/04/01 05:16:38;;;;;;;15.32;8.80;;;9.40;99.90;;;;;;5126891;28;20511;-82
2023/04/01 05:19:04;;;;;;;16.67;9.85;;;9.40;99.90;;;;;;5113795;28;20035;-83
2023/04/01 05:21:31;;;;;;;18.08;9.88;;;9.40;99.90;;;;;;5097237;28;20055;-83
2023/04/01 05:23:58;;;;;;;16.98;10.60;;;9.30;99.90;;;;;;5113997;28;20124;-83
2023/04/01 05:26:25;;;;;;;16.55;10.63;;;9.30;99.90;;;;;;5113812;28;20036;-82
2023/04/01 05:28:51;;;;;;;21.15;11.52;;;9.40;99.90;;;;;;5139096;28;20412;-82
2023/04/01 05:31:18;;;;;;;21.02;12.10;;;9.40;99.90;;;;;;5077102;28;20079;-82
2023/04/01 05:33:45;;;;;;;18.80;11.48;;;9.40;99.90;;;;;;5077040;28;20515;-82
2023/04/01 05:36:14;;;;;;;21.23;12.27;;;9.40;99.90;;;;;;5093863;28;20048;-82
2023/04/01 05:38:42;;;;;;;17.85;11.27;;;9.40;99.90;;;;;;5095933;28;20035;-82
2023/04/01 05:41:09;;;;;;;18.63;11.65;;;9.40;99.90;;;;;;5114390;28;20127;-82
2023/04/01 05:43:37;;;;;;;21.52;12.55;;;9.40;99.90;;;;;;5097171;28;20505;-82
2023/04/01 05:46:04;;;;;;;22.02;13.05;;;9.40;99.90;;;;;;5130810;28;20047;-82
2023/04/01 05:48:32;;;;;;;20.98;11.95;;;9.40;99.90;;;;;;5114018;28;20518;-83
2023/04/01 05:50:59;;;;;;;23.15;13.43;;;9.40;99.90;;;;;;5113984;28;20399;-82
2023/04/01 05:53:26;;;;;;;25.38;12.55;;;9.40;99.90;;;;;;5113544;28;20051;-82
2023/04/01 05:55:53;;;;;;;19.85;11.13;;;9.40;99.90;;;;;;5130212;28;20035;-82
2023/04/01 05:58:19;;;;;;;20.48;11.40;;;9.50;99.90;;;;;;5113727;28;20046;-82
2023/04/01 06:00:46;;;;;;;21.63;12.15;;;9.50;99.90;;;;;;5085612;28;20036;-82
2023/04/01 06:03:13;;;;;;;20.08;11.90;;;9.50;99.90;;;;;;5110053;28;20040;-82
2023/04/01 06:05:42;;;;;;;24.13;12.55;;;9.50;99.90;;;;;;5126637;28;20067;-82
2023/04/01 06:08:17;;;;;;;21.75;11.68;;;9.50;99.90;;;;;;5093115;28;20505;-82
2023/04/01 06:10:44;;;;;;;21.13;12.40;;;9.50;99.90;;;;;;5133225;28;20028;-82
2023/04/01 06:13:43;;;;;;;23.15;11.90;;;9.50;99.90;;;;;;5129691;28;20089;-82
2023/04/01 06:16:39;;;;;;;20.88;10.82;;;9.50;99.90;;;;;;5129618;28;20051;-82
2023/04/01 06:19:12;;;;;;;20.00;11.73;;;9.60;99.90;;;;;;5130109;28;20070;-82
2023/04/01 06:21:48;;;;;;;22.30;12.25;;;9.60;99.90;;;;;;5120171;28;20051;-82
2023/04/01 06:24:27;;;;;;;;;;;9.60;99.90;;;;;;5110154;28;20048;-82
2023/04/01 06:26:53;;;;;;;21.80;11.70;;;9.60;99.90;;;;;;5109331;28;20291;-82
2023/04/01 06:29:39;;;;;;;20.83;12.23;;;9.60;99.90;;;;;;5126589;28;20047;-82
2023/04/01 06:32:32;;;;;;;18.10;11.02;;;9.60;99.90;;;;;;5109449;28;20404;-82
2023/04/01 06:35:11;;;;;;;17.58;11.27;;;9.70;99.90;;;;;;5109162;28;20561;-82
2023/04/01 06:37:46;;;;;;;18.05;11.43;;;9.60;99.90;;;;;;5125995;28;20074;-82
2023/04/01 06:40:45;;;;;;;18.05;10.48;;;9.70;99.90;;;;;;5109644;28;20048;-83
2023/04/01 06:43:17;;;;;;;17.88;10.75;;;9.70;99.90;;;;;;5140092;28;20044;-82
2023/04/01 06:46:11;;;;;;;18.10;11.13;;;9.70;99.90;;;;;;5129280;28;20536;-82
2023/04/01 06:48:56;;;;;;;17.60;10.73;;;9.80;99.90;;;;;;5110564;28;20048;-83
2023/04/01 06:51:36;;;;;;;19.42;10.70;;;9.80;99.90;;;;;;5109279;28;20040;-82
2023/04/01 06:54:20;;;;;;;17.63;10.27;;;9.80;99.90;;;;;;5109121;28;20055;-83
2023/04/01 06:56:53;;;;;;;17.77;10.13;;;9.80;99.90;;;;;;5108749;28;20063;-83
2023/04/01 06:59:24;;;;;;;18.23;10.63;;;9.90;99.90;;;;;;5109339;28;20059;-83
2023/04/01 07:02:00;;;;;;;17.65;10.50;;;9.90;99.90;;;;;;5109156;28;20036;-82
2023/04/01 07:04:34;;;;;;;16.48;10.45;;;10.00;99.90;;;;;;5120606;28;20148;-83
2023/04/01 07:07:14;;;;;;;19.73;11.43;;;10.00;99.90;;;;;;5112058;28;20399;-82
2023/04/01 07:09:49;;;;;;;18.95;11.80;;;10.00;99.90;;;;;;5126017;28;20915;-83
2023/04/01 07:12:24;;;;;;;18.33;10.93;;;10.10;99.90;;;;;;5118064;28;20058;-82
2023/04/01 07:14:54;;;;;;;16.55;10.13;;;10.10;99.90;;;;;;5110625;28;20047;-82
2023/04/01 07:17:23;;;;;;;17.02;10.38;;;10.20;99.90;;;;;;5134040;28;20035;-82
2023/04/01 07:20:03;;;;;;;17.42;10.45;;;10.20;99.90;;;;;;5113602;28;20044;-82
2023/04/01 07:22:35;;;;;;;17.33;10.93;;;10.30;99.90;;;;;;5113102;28;20198;-82
2023/04/01 07:25:12;;;;;;;17.50;10.80;;;10.30;99.90;;;;;;5124023;28;20050;-83
2023/04/01 07:27:38;;;;;;;18.27;10.50;;;10.30;99.90;;;;;;5117234;28;20500;-83
2023/04/01 07:30:17;;;;;;;18.10;10.38;;;10.30;99.90;;;;;;5095804;28;20046;-82
2023/04/01 07:33:02;;;;;;;16.95;10.68;;;10.30;99.90;;;;;;5129486;28;20511;-83
2023/04/01 07:35:45;;;;;;;20.70;11.18;;;10.30;99.90;;;;;;5112715;28;20047;-82
2023/04/01 07:38:41;;;;;;;17.63;10.98;;;10.40;99.90;;;;;;5112557;28;20032;-82
2023/04/01 07:41:23;;;;;;;16.95;10.52;;;10.50;99.90;;;;;;5112317;28;20040;-82
2023/04/01 07:44:08;;;;;;;15.25;9.68;;;10.50;99.90;;;;;;5112238;28;20084;-82
2023/04/01 07:46:54;;;;;;;15.55;8.98;;;10.40;99.90;;;;;;5127796;28;20469;-82
2023/04/01 07:49:35;;;;;;;14.65;8.75;;;10.40;99.90;;;;;;5132894;28;20043;-82
2023/04/01 07:52:18;;;;;;;13.98;8.43;;;10.40;99.90;;;;;;5132747;28;20044;-82
2023/04/01 07:54:57;;;;;;;13.32;8.80;;;10.30;99.90;;;;;;5149987;28;20039;-82
2023/04/01 07:57:42;;;;;;;12.65;8.10;;;10.40;99.90;;;;;;5132538;28;20502;-82
2023/04/01 08:00:27;;;;;;;13.10;8.38;;;10.40;99.90;;;;;;5132261;28;20096;-83
2023/04/01 08:03:13;;;;;;;13.65;8.55;;;10.40;99.90;;;;;;5132269;28;20040;-82
2023/04/01 08:06:01;;;;;;;14.50;8.23;;;10.50;99.90;;;;;;5132417;28;20047;-83
2023/04/01 08:08:53;;;;;;;13.95;8.95;;;10.50;99.90;;;;;;5132365;28;20043;-83
2023/04/01 08:11:29;;;;;;;14.88;8.65;;;10.50;99.90;;;;;;5131909;28;20036;-82
2023/04/01 08:14:21;;;;;;;12.32;7.60;;;10.50;99.90;;;;;;5132397;28;20044;-80
2023/04/01 08:17:00;;;;;;;13.98;8.35;;;10.50;99.90;;;;;;5128149;28;20055;-80
2023/04/01 08:19:49;;;;;;;13.05;8.18;;;10.40;99.90;;;;;;5112151;28;20032;-80
2023/04/01 08:22:24;;;;;;;15.13;8.55;;;10.40;99.90;;;;;;5124002;28;20036;-81
2023/04/01 08:24:52;;;;;;;13.07;8.10;;;10.40;99.90;;;;;;5131686;28;20475;-82
2023/04/01 08:27:24;;;;;;;14.70;8.18;;;10.40;99.90;;;;;;5110126;28;20047;-80
2023/04/01 08:30:19;;;;;;;12.45;7.75;;;10.40;99.90;;;;;;5120183;28;20043;-82
2023/04/01 08:33:08;;;;;;;15.70;8.50;;;10.40;99.90;;;;;;5131701;28;20040;-82
2023/04/01 08:35:41;;;;;;;14.55;8.13;;;10.50;99.90;;;;;;5148483;28;20031;-81
2023/04/01 08:38:18;;;;;;;13.05;8.13;;;10.50;99.90;;;;;;5130261;28;20499;-81
2023/04/01 08:41:01;;;;;;;14.68;8.82;;;10.60;99.90;;;;;;5128416;28;20035;-81
2023/04/01 08:43:50;;;;;;;15.15;8.93;;;10.60;99.90;;;;;;5131195;28;20046;-81
2023/04/01 08:46:46;;;;;;;13.32;7.80;;;10.70;99.90;;;;;;5130370;28;20542;-81
2023/04/01 08:49:20;;;;;;;11.30;7.07;;;10.70;99.90;;;;;;5119896;28;20040;-81
2023/04/01 08:51:55;;;;;;;12.85;6.50;;;10.70;99.90;;;;;;5110447;28;20039;-81
2023/04/01 08:54:40;;;;;;;9.30;6.25;;;10.80;99.90;;;;;;5110806;28;20044;-80
2023/04/01 08:57:55;;;;;;;10.85;6.57;;;10.70;99.90;;;;;;5109923;28;20055;-81
2023/04/01 09:00:31;;;;;;;10.05;6.32;;;10.80;99.90;;;;;;5104150;28;20048;-81
2023/04/01 09:03:10;;;;;;;8.80;5.78;;;10.80;99.90;;;;;;5125523;28;20056;-81
2023/04/01 09:05:55;;;;;;;9.15;5.32;;;10.90;99.90;;;;;;5130988;28;20507;-81
2023/04/01 09:08:52;;;;;;;8.27;4.70;;;11.00;99.90;;;;;;5130777;28;20083;-81
2023/04/01 09:11:31;;;;;;;6.93;4.40;;;11.00;99.90;;;;;;5130074;28;20055;-81
2023/04/01 09:14:23;;;;;;;7.85;4.63;;;11.00;99.90;;;;;;5129662;28;20508;-81
2023/04/01 09:17:26;;;;;;;7.47;4.50;;;11.00;99.90;;;;;;5130511;28;20052;-81
2023/04/01 09:20:07;;;;;;;5.30;3.47;;;11.10;99.90;;;;;;5145044;28;20043;-81
2023/04/01 09:23:04;;;;;;;5.85;3.03;;;10.90;99.90;;;;;;5115119;28;20568;-81
2023/04/01 09:25:48;;;;;;;5.50;2.95;;;10.70;99.90;;;;;;5121502;28;20507;-80
2023/04/01 09:28:38;;;;;;;4.43;2.60;;;10.50;99.90;;;;;;5122762;28;20100;-80
2023/04/01 09:31:07;;;;;;;5.55;2.97;;;10.30;99.90;;;;;;5130519;28;20114;-80
2023/04/01 09:34:23;;;;;;;4.75;2.78;;;10.20;99.90;;;;;;5130773;28;20067;-80
2023/04/01 09:37:18;;;;;;;4.82;2.72;;;10.10;99.90;;;;;;5103395;28;20047;-81
2023/04/01 09:40:09;;;;;;;4.07;2.38;;;10.10;99.90;;;;;;5130349;28;20118;-80
2023/04/01 09:42:54;;;;;;;3.50;2.20;;;10.10;99.90;;;;;;5130682;28;20032;-80
2023/04/01 09:45:30;;;;;;;4.33;1.70;;;10.00;99.90;;;;;;5147588;28;20039;-80
2023/04/01 09:48:14;;;;;;;4.45;1.88;;;10.00;99.90;;;;;;5130890;28;20350;-80
2023/04/01 09:51:19;;;;;;;3.20;1.70;;;9.90;99.90;;;;;;5130508;28;20465;-80
2023/04/01 09:54:09;;;;;;;2.80;1.73;;;10.00;99.90;;;;;;5077867;28;20486;-80
2023/04/01 09:57:07;;;;;;;3.08;1.77;;;10.00;99.90;;;;;;5130324;28;20040;-80
2023/04/01 09:59:46;;;;;;;3.30;1.80;;;10.10;99.90;;;;;;5144110;28;20074;-80
2023/04/01 10:03:03;;;;;;;3.67;1.40;;;10.00;99.90;;;;;;5125992;28;20035;-80
2023/04/01 10:05:48;;;;;;;;;;;10.00;99.90;;;;;;5072592;28;20143;-80
2023/04/01 10:08:39;;;;;;;2.88;1.60;;;10.00;99.90;;;;;;5125682;28;19922;-80
2023/04/01 10:12:00;;;;;;;3.53;1.60;;;9.90;99.90;;;;;;5130313;28;20403;-80
2023/04/01 10:15:03;;;;;;;3.70;1.45;;;10.00;99.90;;;;;;5051829;28;20824;-81
2023/04/01 10:17:46;;;;;;;3.85;1.58;;;9.80;99.90;;;;;;5126498;28;20044;-80
2023/04/01 10:21:14;;;;;;;3.17;1.40;;;9.90;99.90;;;;;;5126545;28;20055;-80
2023/04/01 10:24:02;;;;;;;2.67;1.45;;;9.80;99.90;;;;;;5086998;28;20078;-80
2023/04/01 10:26:35;;;;;;;3.10;1.70;;;9.80;99.90;;;;;;5070160;28;20076;-80
2023/04/01 10:29:39;;;;;;;3.70;1.50;;;9.80;99.90;;;;;;5097093;28;20139;-82
2023/04/01 10:32:24;;;;;;;2.67;1.50;;;9.80;99.90;;;;;;5109659;28;20075;-80
2023/04/01 10:35:03;;;;;;;3.05;1.30;;;9.80;99.90;;;;;;5109890;28;20040;-80
2023/04/01 10:38:04;;;;;;;1.63;1.10;;;9.70;99.90;;;;;;5109842;28;20063;-80
2023/04/01 10:41:02;;;;;;;2.67;1.38;;;9.70;99.90;;;;;;5109846;28;20039;-81
2023/04/01 10:43:50;;;;;;;2.95;1.50;;;9.60;99.90;;;;;;5127122;28;20042;-80
2023/04/01 10:46:35;;;;;;;3.13;1.60;;;9.70;99.90;;;;;;5129542;28;20074;-80
2023/04/01 10:49:24;;;;;;;2.60;1.50;;;9.70;99.90;;;;;;5129655;28;20043;-80
2023/04/01 10:52:23;;;;;;;3.47;1.40;;;9.70;99.90;;;;;;5129546;28;20321;-80
2023/04/01 10:55:22;;;;;;;2.50;1.50;;;9.70;99.90;;;;;;5147169;28;20043;-80
2023/04/01 10:58:23;;;;;;;3.92;1.50;;;9.80;99.90;;;;;;5130459;28;20100;-80
2023/04/01 11:01:20;;;;;;;2.53;1.35;;;9.90;99.90;;;;;;5122389;28;20040;-80
2023/04/01 11:04:02;;;;;;;2.35;1.40;;;10.00;99.90;;;;;;5126153;28;20036;-81
2023/04/01 11:06:32;;;;;;;3.33;1.40;;;10.00;99.90;;;;;;5130117;28;20061;-80
2023/04/01 11:09:04;;;;;;;3.20;1.27;;;10.10;99.90;;;;;;5130132;28;20126;-80
2023/04/01 11:11:53;;;;;;;3.20;1.50;;;10.20;99.90;;;;;;5129110;28;20496;-80
2023/04/01 11:14:57;;;;;;;2.35;1.40;;;10.20;99.90;;;;;;5110967;28;20048;-80
2023/04/01 11:17:46;;;;;;;2.90;1.60;;;9.90;99.90;;;;;;5109176;28;20549;-80
2023/04/01 11:20:57;;;;;;;3.28;1.80;;;10.10;99.90;;;;;;5108903;28;20048;-80
2023/04/01 11:23:43;;;;;;;3.33;1.90;;;9.90;99.90;;;;;;5107597;28;20044;-80
2023/04/01 11:26:12;;;;;;;3.90;2.42;;;10.00;99.90;;;;;;5109220;28;20043;-80
2023/04/01 11:28:42;;;;;;;3.75;2.05;;;10.10;99.90;;;;;;5109576;28;20036;-80
2023/04/01 11:31:43;;;;;;;4.30;2.47;;;10.30;99.90;;;;;;5108947;28;20032;-80
2023/04/01 11:34:28;;;;;;;3.67;2.10;;;10.40;99.90;;;;;;5126101;28;20032;-80
2023/04/01 11:37:16;;;;;;;3.53;1.80;;;10.50;99.90;;;;;;5118789;28;20071;-80
2023/04/01 11:39:43;;;;;;;5.30;1.85;;;10.50;99.90;;;;;;5129934;28;20653;-80
2023/04/01 11:42:59;;;;;;;3.47;1.65;;;10.50;99.90;;;;;;5129750;28;20040;-80
2023/04/01 11:45:47;;;;;;;1.95;1.10;;;10.40;99.90;;;;;;5106493;28;20044;-80
2023/04/01 11:48:26;;;;;;;1.95;1.20;;;10.30;99.90;;;;;;5129635;28;20043;-81
2023/04/01 11:51:30;;;;;;;2.25;1.27;;;10.20;99.90;;;;;;5129885;28;20096;-80
2023/04/01 11:54:05;;;;;;;2.13;1.30;;;10.30;99.90;;;;;;5129738;28;20042;-80
2023/04/01 11:56:51;;;;;;;;;;;10.40;99.90;;;;;;5130038;28;20075;-80
2023/04/01 12:00:02;;;;;;;3.25;1.75;;;10.20;99.90;;;;;;5129270;28;19977;-81
2023/04/01 12:02:38;;;;;;;2.65;1.35;;;10.10;99.90;;;;;;5122495;28;20441;-81
2023/04/01 12:05:26;;;;;;;4.20;1.85;;;10.00;99.90;;;;;;5133275;28;20039;-80
2023/04/01 12:08:29;;;;;;;3.13;1.70;;;9.90;99.90;;;;;;5133146;28;20495;-80
2023/04/01 12:11:09;;;;;;;3.17;1.83;;;9.60;99.90;;;;;;5133420;28;20046;-80
2023/04/01 12:13:49;;;;;;;3.17;1.80;;;9.80;99.90;;;;;;5133297;28;20039;-80
2023/04/01 12:16:43;;;;;;;3.30;2.00;;;9.80;99.90;;;;;;5132908;28;20052;-80
2023/04/01 12:19:25;;;;;;;3.15;1.90;;;9.80;99.90;;;;;;5133011;28;20403;-80
2023/04/01 12:22:10;;;;;;;3.00;1.90;;;9.80;99.90;;;;;;5133251;28;20032;-80
2023/04/01 12:24:51;;;;;;;3.27;1.80;;;9.80;99.90;;;;;;5133271;28;20046;-80
2023/04/01 12:27:38;;;;;;;3.05;1.70;;;9.70;99.90;;;;;;5132919;28;20442;-80
2023/04/01 12:30:39;;;;;;;3.47;1.67;;;9.60;99.90;;;;;;5132972;28;20036;-80
2023/04/01 12:33:26;;;;;;;2.70;1.65;;;9.60;99.90;;;;;;5132735;28;20046;-80
2023/04/01 12:36:03;;;;;;;3.00;1.77;;;9.60;99.90;;;;;;5132686;28;20035;-81
2023/04/01 12:39:20;;;;;;;2.88;1.63;;;9.60;99.90;;;;;;5130450;28;20042;-81
2023/04/01 12:41:46;;;;;;;3.75;1.80;;;9.60;99.90;;;;;;5112246;28;20044;-81
2023/04/01 12:44:42;;;;;;;2.90;1.70;;;9.70;99.90;;;;;;5126663;28;20047;-81
2023/04/01 12:47:20;;;;;;;2.40;1.30;;;9.60;99.90;;;;;;5129703;28;20093;-81
2023/04/01 12:50:11;;;;;;;2.20;1.33;;;9.60;99.90;;;;;;5131470;28;20304;-81
2023/04/01 12:53:06;;;;;;;3.00;1.50;;;9.50;99.90;;;;;;5131043;28;20043;-82
2023/04/01 12:55:38;;;;;;;2.38;1.27;;;9.40;99.90;;;;;;5131201;28;20044;-81
2023/04/01 12:58:42;;;;;;;3.38;1.40;;;9.40;99.90;;;;;;5131872;28;20589;-81
2023/04/01 13:01:37;;;;;;;2.70;1.25;;;9.30;99.90;;;;;;5116708;28;20052;-81
2023/04/01 13:04:25;;;;;;;2.33;1.20;;;9.30;99.90;;;;;;5110894;28;20074;-81
2023/04/01 13:07:04;;;;;;;2.40;1.25;;;9.30;99.90;;;;;;5111323;28;20051;-81
2023/04/01 13:10:02;;;;;;;3.00;1.13;;;9.20;99.90;;;;;;5110683;28;20042;-82
2023/04/01 13:12:36;;;;;;;2.25;1.25;;;9.20;99.90;;;;;;5129234;28;20050;-81
2023/04/01 13:15:02;;;;;;;4.57;1.50;;;9.10;99.90;;;;;;5130477;28;20138;-81
2023/04/01 13:17:47;;;;;;;2.80;1.60;;;9.10;99.90;;;;;;5131076;28;20462;-81
2023/04/01 13:20:35;;;;;;;2.97;1.47;;;9.00;99.90;;;;;;5131540;28;20557;-80
2023/04/01 13:23:24;;;;;;;2.20;1.20;;;9.00;99.90;;;;;;5131677;28;20043;-80
2023/04/01 13:26:10;;;;;;;1.98;1.23;;;9.00;99.90;;;;;;5130911;28;20043;-81
2023/04/01 13:28:47;;;;;;;2.47;1.42;;;9.10;99.90;;;;;;5147674;28;20040;-81
2023/04/01 13:31:39;;;;;;;3.65;1.40;;;9.10;99.90;;;;;;5130440;28;20491;-81
2023/04/01 13:34:14;;;;;;;2.55;1.50;;;9.10;99.90;;;;;;5110416;28;20400;-81
2023/04/01 13:37:37;;;;;;;2.90;1.30;;;9.10;99.90;;;;;;5109258;28;20453;-81
2023/04/01 13:40:54;;;;;;;2.65;1.40;;;9.10;99.90;;;;;;5051756;28;20041;-81
2023/04/01 13:43:43;;;;;;;2.17;1.30;;;9.00;99.90;;;;;;5073376;28;20404;-81
2023/04/01 13:46:28;;;;;;;2.90;1.50;;;9.00;99.90;;;;;;5088221;28;20518;-81